WIHHWAOO

Guest
Details From WIHH - Jakarta Halim Perdanakusuma Intl
To WAOO - Banjarmasin Syamsudin Noor
Flight Number -
Tags generated
Created
Modified
Stats Distance 501 nm / 928 km
Max Altitude 35,000 ft / 10,668 m
Waypoints 3
Social Downloads 0
Likes 0
Share VATSIM

Download

Looking for another format? Having issues loading an existing format? Contact us
Advertisement - Login to hide

Notes

Basic altitude profile: - Ascent Rate: 1500ft/min - Ascent Speed: 190kts - Cruise Altitude: 15000ft - Cruise Speed: 265kts - Descent Rate: 1500ft/min - Descent Speed: 160kts Options: - Use NATs: yes - Use PACOTS: yes - Use low airways: no - Use high airways: no

Route

WIHH 500S11000E WAOO

ID Type Via Altitude Latitude Longitude Leg Dist Tot Dist Heading (true) Name
O WIHH APT - 0 ft / 0 m -6.26661˚ 106.89112˚ - 0 nm - Jakarta Halim Perdanakusuma Intl
500S11000E LATLON - 35,000 ft / 10,668 m -5.00000˚ 110.00000˚ 200 nm 200 nm 68° / 68° -
O WAOO APT - 0 ft / 0 m -3.44235˚ 114.76255˚ 300 nm 500 nm 72° / 72° Banjarmasin Syamsudin Noor

Altitude Profile

Advertisement - Login to hide

Weather


0- 5 10 15 20 25 30 35+ Temperature / ° C

Clouds and Precipitation
Forecast for 2017-12-13 12:00 UTC. Updated 7 minutes ago

Ground ~20,000 ft ~40,000 ft Winds

WIHH

Details ICAO WIHH (HLP)
Name Jakarta Halim Perdanakusuma Intl
Region Indonesia
Timezone Asia/Jakarta (UTC+7.0)
Stats Elevation 84 ft / 26 m (AMSL)
Location -6.266608° 106.891117°
Runways 1
Magnetic Variation 0.650° E

METAR

WIHH 130700Z 25008KT 8000 SCT017 30/23 Q1009 NOSIG

Decode

TAF

Not found

Departure Runways

ID Width Length Bearing (true) Bearing (mag) Surface Threshold Offset Overrun Length
06 148 ft / 45 m 9,855 ft / 3,004 m 65.38° 64.73° Asphalt 0 ft / 0 m 0 ft / 0 m
24 148 ft / 45 m 9,855 ft / 3,004 m 245.38° 244.73° Asphalt 650 ft / 198 m 0 ft / 0 m

WAOO

Details ICAO WAOO (BDJ)
Name Banjarmasin Syamsudin Noor
Region Indonesia
Timezone Asia/Makassar (UTC+8.0)
Stats Elevation 66 ft / 20 m (AMSL)
Location -3.442354° 114.762552°
Runways 1
Magnetic Variation 0.720° E

METAR

WAOO 130700Z 27007KT RA 9999 FEW015CB SCT016 29/25 Q1008

Decode

TAF

Not found

Destination Runways

ID Width Length Bearing (true) Bearing (mag) Surface Threshold Offset Overrun Length
10 148 ft / 45 m 8,208 ft / 2,502 m 100.45° 99.73° Asphalt 0 ft / 0 m 200 ft / 61 m
28 148 ft / 45 m 8,208 ft / 2,502 m 280.45° 279.73° Asphalt 0 ft / 0 m 200 ft / 61 m

Approach Navaids

Runway Type Ident Frequency Range Bearing (true) Bearing (mag) Slope Elevation
10 Localiser IBDM 110.70 MHz 18 nm / 33 km 100.49° 99.77° - 66 ft / 20 m (AMSL)
10 Glidescope IBDM 110.70 MHz 10 nm / 19 km 100.45° 99.73° 3.00° 54 ft / 16 m (AMSL)

Popular Alternatives